sensor_id;sensor_type;location;lat;lon;timestamp;P1;durP1;ratioP1;P2;durP2;ratioP2
21519;SDS011;10921;53.614;9.882;2023-03-08T00:01:17;17.38;;;11.30;;
21519;SDS011;10921;53.614;9.882;2023-03-08T00:03:49;13.80;;;11.43;;
21519;SDS011;10921;53.614;9.882;2023-03-08T00:06:18;11.85;;;10.25;;
21519;SDS011;10921;53.614;9.882;2023-03-08T00:08:44;13.93;;;11.32;;
21519;SDS011;10921;53.614;9.882;2023-03-08T00:11:13;11.27;;;10.20;;
21519;SDS011;10921;53.614;9.882;2023-03-08T00:13:40;11.68;;;10.20;;
21519;SDS011;10921;53.614;9.882;2023-03-08T00:16:09;12.20;;;10.88;;
21519;SDS011;10921;53.614;9.882;2023-03-08T00:21:05;17.02;;;11.63;;
21519;SDS011;10921;53.614;9.882;2023-03-08T00:23:33;12.13;;;10.70;;
21519;SDS011;10921;53.614;9.882;2023-03-08T00:25:59;14.38;;;11.05;;
21519;SDS011;10921;53.614;9.882;2023-03-08T00:28:26;11.73;;;10.70;;
21519;SDS011;10921;53.614;9.882;2023-03-08T00:30:54;12.10;;;10.63;;
21519;SDS011;10921;53.614;9.882;2023-03-08T00:33:22;12.80;;;10.40;;
21519;SDS011;10921;53.614;9.882;2023-03-08T00:35:56;13.18;;;10.55;;
21519;SDS011;10921;53.614;9.882;2023-03-08T00:38:24;11.35;;;10.40;;
21519;SDS011;10921;53.614;9.882;2023-03-08T00:40:52;11.60;;;10.68;;
21519;SDS011;10921;53.614;9.882;2023-03-08T00:43:19;10.73;;;9.82;;
21519;SDS011;10921;53.614;9.882;2023-03-08T00:45:46;12.25;;;11.15;;
21519;SDS011;10921;53.614;9.882;2023-03-08T00:48:17;11.55;;;10.07;;
21519;SDS011;10921;53.614;9.882;2023-03-08T00:50:43;10.95;;;9.95;;
21519;SDS011;10921;53.614;9.882;2023-03-08T00:53:10;11.23;;;10.07;;
21519;SDS011;10921;53.614;9.882;2023-03-08T00:55:36;10.40;;;9.50;;
21519;SDS011;10921;53.614;9.882;2023-03-08T00:58:03;11.15;;;10.32;;
21519;SDS011;10921;53.614;9.882;2023-03-08T01:00:30;11.52;;;10.65;;
21519;SDS011;10921;53.614;9.882;2023-03-08T01:02:56;11.57;;;10.43;;
21519;SDS011;10921;53.614;9.882;2023-03-08T01:05:23;14.52;;;10.38;;
21519;SDS011;10921;53.614;9.882;2023-03-08T01:07:50;11.50;;;10.50;;
21519;SDS011;10921;53.614;9.882;2023-03-08T01:10:16;12.10;;;10.82;;
21519;SDS011;10921;53.614;9.882;2023-03-08T01:12:42;11.27;;;10.38;;
21519;SDS011;10921;53.614;9.882;2023-03-08T01:15:09;11.90;;;10.93;;
21519;SDS011;10921;53.614;9.882;2023-03-08T01:17:36;12.32;;;11.23;;
21519;SDS011;10921;53.614;9.882;2023-03-08T01:20:02;13.23;;;11.90;;
21519;SDS011;10921;53.614;9.882;2023-03-08T01:22:30;15.45;;;11.45;;
21519;SDS011;10921;53.614;9.882;2023-03-08T01:24:56;12.20;;;11.20;;
21519;SDS011;10921;53.614;9.882;2023-03-08T01:27:23;12.82;;;11.80;;
21519;SDS011;10921;53.614;9.882;2023-03-08T01:29:49;12.50;;;11.25;;
21519;SDS011;10921;53.614;9.882;2023-03-08T01:32:16;12.85;;;11.55;;
21519;SDS011;10921;53.614;9.882;2023-03-08T01:34:42;12.70;;;11.38;;
21519;SDS011;10921;53.614;9.882;2023-03-08T01:37:09;12.13;;;11.02;;
21519;SDS011;10921;53.614;9.882;2023-03-08T01:39:35;12.75;;;11.63;;
21519;SDS011;10921;53.614;9.882;2023-03-08T01:42:02;13.80;;;11.60;;
21519;SDS011;10921;53.614;9.882;2023-03-08T01:47:23;14.15;;;11.27;;
21519;SDS011;10921;53.614;9.882;2023-03-08T01:49:52;13.18;;;12.10;;
21519;SDS011;10921;53.614;9.882;2023-03-08T01:52:27;12.45;;;11.32;;
21519;SDS011;10921;53.614;9.882;2023-03-08T01:54:59;13.82;;;12.60;;
21519;SDS011;10921;53.614;9.882;2023-03-08T01:57:35;13.55;;;12.10;;
21519;SDS011;10921;53.614;9.882;2023-03-08T02:00:06;14.02;;;12.63;;
21519;SDS011;10921;53.614;9.882;2023-03-08T02:02:40;14.25;;;13.05;;
21519;SDS011;10921;53.614;9.882;2023-03-08T02:05:08;14.60;;;12.52;;
21519;SDS011;10921;53.614;9.882;2023-03-08T02:07:36;17.95;;;13.38;;
21519;SDS011;10921;53.614;9.882;2023-03-08T02:10:02;17.23;;;13.80;;
21519;SDS011;10921;53.614;9.882;2023-03-08T02:12:29;14.20;;;12.93;;
21519;SDS011;10921;53.614;9.882;2023-03-08T02:14:56;16.67;;;15.00;;
21519;SDS011;10921;53.614;9.882;2023-03-08T02:17:23;23.45;;;14.00;;
21519;SDS011;10921;53.614;9.882;2023-03-08T02:19:53;17.35;;;15.32;;
21519;SDS011;10921;53.614;9.882;2023-03-08T02:22:22;17.65;;;15.13;;
21519;SDS011;10921;53.614;9.882;2023-03-08T02:24:49;24.02;;;15.30;;
21519;SDS011;10921;53.614;9.882;2023-03-08T02:27:16;24.70;;;16.50;;
21519;SDS011;10921;53.614;9.882;2023-03-08T02:29:49;17.02;;;15.23;;
21519;SDS011;10921;53.614;9.882;2023-03-08T02:32:15;16.65;;;15.13;;
21519;SDS011;10921;53.614;9.882;2023-03-08T02:34:42;18.73;;;15.98;;
21519;SDS011;10921;53.614;9.882;2023-03-08T02:37:08;20.25;;;16.38;;
21519;SDS011;10921;53.614;9.882;2023-03-08T02:39:35;16.90;;;15.20;;
21519;SDS011;10921;53.614;9.882;2023-03-08T02:42:02;18.77;;;15.48;;
21519;SDS011;10921;53.614;9.882;2023-03-08T02:44:29;20.88;;;16.15;;
21519;SDS011;10921;53.614;9.882;2023-03-08T02:46:55;22.38;;;17.15;;
21519;SDS011;10921;53.614;9.882;2023-03-08T02:49:21;29.52;;;16.55;;
21519;SDS011;10921;53.614;9.882;2023-03-08T02:51:48;21.33;;;18.30;;
21519;SDS011;10921;53.614;9.882;2023-03-08T02:54:14;22.08;;;18.15;;
21519;SDS011;10921;53.614;9.882;2023-03-08T02:56:42;22.92;;;17.15;;
21519;SDS011;10921;53.614;9.882;2023-03-08T02:59:08;21.88;;;18.13;;
21519;SDS011;10921;53.614;9.882;2023-03-08T03:01:35;23.67;;;18.52;;
21519;SDS011;10921;53.614;9.882;2023-03-08T03:04:02;23.95;;;20.35;;
21519;SDS011;10921;53.614;9.882;2023-03-08T03:06:29;23.70;;;19.15;;
21519;SDS011;10921;53.614;9.882;2023-03-08T03:08:55;25.00;;;18.80;;
21519;SDS011;10921;53.614;9.882;2023-03-08T03:11:22;19.90;;;17.73;;
21519;SDS011;10921;53.614;9.882;2023-03-08T03:13:55;18.00;;;16.27;;
21519;SDS011;10921;53.614;9.882;2023-03-08T03:16:23;20.05;;;15.90;;
21519;SDS011;10921;53.614;9.882;2023-03-08T03:18:52;18.23;;;16.35;;
21519;SDS011;10921;53.614;9.882;2023-03-08T03:21:19;19.08;;;16.55;;
21519;SDS011;10921;53.614;9.882;2023-03-08T03:23:46;23.08;;;17.65;;
21519;SDS011;10921;53.614;9.882;2023-03-08T03:26:16;18.50;;;16.63;;
21519;SDS011;10921;53.614;9.882;2023-03-08T03:28:45;18.15;;;16.25;;
21519;SDS011;10921;53.614;9.882;2023-03-08T03:31:16;16.80;;;15.18;;
21519;SDS011;10921;53.614;9.882;2023-03-08T03:33:45;17.42;;;15.23;;
21519;SDS011;10921;53.614;9.882;2023-03-08T03:36:12;17.08;;;15.48;;
21519;SDS011;10921;53.614;9.882;2023-03-08T03:38:40;16.65;;;14.85;;
21519;SDS011;10921;53.614;9.882;2023-03-08T03:41:09;16.52;;;14.88;;
21519;SDS011;10921;53.614;9.882;2023-03-08T03:43:37;16.70;;;14.95;;
21519;SDS011;10921;53.614;9.882;2023-03-08T03:46:05;17.30;;;14.27;;
21519;SDS011;10921;53.614;9.882;2023-03-08T03:48:34;17.60;;;14.43;;
21519;SDS011;10921;53.614;9.882;2023-03-08T03:51:02;16.58;;;14.95;;
21519;SDS011;10921;53.614;9.882;2023-03-08T03:53:29;16.98;;;15.27;;
21519;SDS011;10921;53.614;9.882;2023-03-08T03:56:03;17.73;;;15.65;;
21519;SDS011;10921;53.614;9.882;2023-03-08T03:58:30;20.70;;;17.15;;
21519;SDS011;10921;53.614;9.882;2023-03-08T04:00:56;21.42;;;18.48;;
21519;SDS011;10921;53.614;9.882;2023-03-08T04:03:23;20.65;;;17.38;;
21519;SDS011;10921;53.614;9.882;2023-03-08T04:05:50;20.23;;;18.10;;
21519;SDS011;10921;53.614;9.882;2023-03-08T04:08:16;22.58;;;17.65;;
21519;SDS011;10921;53.614;9.882;2023-03-08T04:10:43;23.02;;;18.60;;
21519;SDS011;10921;53.614;9.882;2023-03-08T04:13:10;22.55;;;18.20;;
21519;SDS011;10921;53.614;9.882;2023-03-08T04:15:37;21.75;;;17.55;;
21519;SDS011;10921;53.614;9.882;2023-03-08T04:18:03;20.67;;;16.63;;
21519;SDS011;10921;53.614;9.882;2023-03-08T04:20:30;18.33;;;16.63;;
21519;SDS011;10921;53.614;9.882;2023-03-08T04:22:56;20.02;;;17.85;;
21519;SDS011;10921;53.614;9.882;2023-03-08T04:25:23;25.02;;;17.67;;
21519;SDS011;10921;53.614;9.882;2023-03-08T04:27:49;26.73;;;21.17;;
21519;SDS011;10921;53.614;9.882;2023-03-08T04:30:15;24.17;;;18.58;;
21519;SDS011;10921;53.614;9.882;2023-03-08T04:32:42;23.73;;;19.60;;
21519;SDS011;10921;53.614;9.882;2023-03-08T04:35:08;21.48;;;18.13;;
21519;SDS011;10921;53.614;9.882;2023-03-08T04:37:35;22.70;;;18.75;;
21519;SDS011;10921;53.614;9.882;2023-03-08T04:40:02;19.92;;;17.83;;
21519;SDS011;10921;53.614;9.882;2023-03-08T04:42:32;23.70;;;18.65;;
21519;SDS011;10921;53.614;9.882;2023-03-08T04:44:58;19.05;;;16.45;;
21519;SDS011;10921;53.614;9.882;2023-03-08T04:47:25;18.40;;;16.27;;
21519;SDS011;10921;53.614;9.882;2023-03-08T04:49:51;17.83;;;15.23;;
21519;SDS011;10921;53.614;9.882;2023-03-08T04:52:17;16.90;;;14.90;;
21519;SDS011;10921;53.614;9.882;2023-03-08T04:54:44;16.33;;;14.82;;
21519;SDS011;10921;53.614;9.882;2023-03-08T04:57:10;19.33;;;14.93;;
21519;SDS011;10921;53.614;9.882;2023-03-08T04:59:37;23.83;;;19.83;;
21519;SDS011;10921;53.614;9.882;2023-03-08T05:02:03;22.38;;;18.73;;
21519;SDS011;10921;53.614;9.882;2023-03-08T05:04:30;20.83;;;18.55;;
21519;SDS011;10921;53.614;9.882;2023-03-08T05:06:56;22.98;;;19.88;;
21519;SDS011;10921;53.614;9.882;2023-03-08T05:09:23;22.02;;;19.55;;
21519;SDS011;10921;53.614;9.882;2023-03-08T05:11:49;29.80;;;22.63;;
21519;SDS011;10921;53.614;9.882;2023-03-08T05:14:16;32.95;;;22.27;;
21519;SDS011;10921;53.614;9.882;2023-03-08T05:16:42;26.70;;;20.83;;
21519;SDS011;10921;53.614;9.882;2023-03-08T05:19:08;19.27;;;16.83;;
21519;SDS011;10921;53.614;9.882;2023-03-08T05:21:35;16.88;;;15.02;;
21519;SDS011;10921;53.614;9.882;2023-03-08T05:24:02;16.67;;;14.55;;
21519;SDS011;10921;53.614;9.882;2023-03-08T05:26:28;15.07;;;13.75;;
21519;SDS011;10921;53.614;9.882;2023-03-08T05:28:55;14.30;;;13.05;;
21519;SDS011;10921;53.614;9.882;2023-03-08T05:31:21;13.73;;;12.52;;
21519;SDS011;10921;53.614;9.882;2023-03-08T05:33:49;14.75;;;13.48;;
21519;SDS011;10921;53.614;9.882;2023-03-08T05:36:17;14.23;;;12.88;;
21519;SDS011;10921;53.614;9.882;2023-03-08T05:38:43;13.82;;;12.60;;
21519;SDS011;10921;53.614;9.882;2023-03-08T05:41:11;14.52;;;13.23;;
21519;SDS011;10921;53.614;9.882;2023-03-08T05:43:39;14.35;;;12.63;;
21519;SDS011;10921;53.614;9.882;2023-03-08T05:46:06;14.95;;;13.52;;
21519;SDS011;10921;53.614;9.882;2023-03-08T05:48:36;15.18;;;13.77;;
21519;SDS011;10921;53.614;9.882;2023-03-08T05:51:09;14.02;;;12.82;;
21519;SDS011;10921;53.614;9.882;2023-03-08T05:53:37;14.70;;;13.25;;
21519;SDS011;10921;53.614;9.882;2023-03-08T05:56:07;18.33;;;14.23;;
21519;SDS011;10921;53.614;9.882;2023-03-08T05:58:35;22.48;;;15.20;;
21519;SDS011;10921;53.614;9.882;2023-03-08T06:01:18;19.00;;;15.27;;
21519;SDS011;10921;53.614;9.882;2023-03-08T06:03:46;17.58;;;15.05;;
21519;SDS011;10921;53.614;9.882;2023-03-08T06:06:14;18.88;;;16.85;;
21519;SDS011;10921;53.614;9.882;2023-03-08T06:08:41;18.55;;;15.65;;
21519;SDS011;10921;53.614;9.882;2023-03-08T06:11:08;18.42;;;15.95;;
21519;SDS011;10921;53.614;9.882;2023-03-08T06:13:36;18.63;;;16.65;;
21519;SDS011;10921;53.614;9.882;2023-03-08T06:16:02;18.42;;;16.38;;
21519;SDS011;10921;53.614;9.882;2023-03-08T06:18:29;19.10;;;16.83;;
21519;SDS011;10921;53.614;9.882;2023-03-08T06:21:01;22.67;;;19.25;;
21519;SDS011;10921;53.614;9.882;2023-03-08T06:23:29;20.38;;;18.23;;
21519;SDS011;10921;53.614;9.882;2023-03-08T06:25:56;22.33;;;18.17;;
21519;SDS011;10921;53.614;9.882;2023-03-08T06:28:24;21.83;;;18.52;;
21519;SDS011;10921;53.614;9.882;2023-03-08T06:30:51;25.73;;;18.88;;
21519;SDS011;10921;53.614;9.882;2023-03-08T06:33:18;22.00;;;18.77;;
21519;SDS011;10921;53.614;9.882;2023-03-08T06:35:56;21.67;;;18.77;;
21519;SDS011;10921;53.614;9.882;2023-03-08T06:38:25;19.95;;;17.80;;
21519;SDS011;10921;53.614;9.882;2023-03-08T06:40:55;24.52;;;20.38;;
21519;SDS011;10921;53.614;9.882;2023-03-08T06:43:22;28.92;;;20.98;;
21519;SDS011;10921;53.614;9.882;2023-03-08T06:45:48;27.63;;;22.20;;
21519;SDS011;10921;53.614;9.882;2023-03-08T06:48:15;27.30;;;20.45;;
21519;SDS011;10921;53.614;9.882;2023-03-08T06:50:42;27.98;;;21.60;;
21519;SDS011;10921;53.614;9.882;2023-03-08T06:53:09;27.00;;;22.15;;
21519;SDS011;10921;53.614;9.882;2023-03-08T06:55:36;27.20;;;21.70;;
21519;SDS011;10921;53.614;9.882;2023-03-08T06:58:03;22.92;;;20.33;;
21519;SDS011;10921;53.614;9.882;2023-03-08T07:00:30;20.70;;;18.50;;
21519;SDS011;10921;53.614;9.882;2023-03-08T07:02:57;22.15;;;17.45;;
21519;SDS011;10921;53.614;9.882;2023-03-08T07:05:23;20.10;;;17.85;;
21519;SDS011;10921;53.614;9.882;2023-03-08T07:07:50;19.77;;;17.58;;
21519;SDS011;10921;53.614;9.882;2023-03-08T07:10:18;19.77;;;17.73;;
21519;SDS011;10921;53.614;9.882;2023-03-08T07:12:46;19.58;;;16.60;;
21519;SDS011;10921;53.614;9.882;2023-03-08T07:15:19;22.52;;;18.38;;
21519;SDS011;10921;53.614;9.882;2023-03-08T07:17:48;34.53;;;20.58;;
21519;SDS011;10921;53.614;9.882;2023-03-08T07:20:17;21.90;;;19.00;;
21519;SDS011;10921;53.614;9.882;2023-03-08T07:22:45;32.88;;;26.70;;
21519;SDS011;10921;53.614;9.882;2023-03-08T07:25:15;29.38;;;24.92;;
21519;SDS011;10921;53.614;9.882;2023-03-08T07:27:43;29.40;;;24.52;;
21519;SDS011;10921;53.614;9.882;2023-03-08T07:30:11;37.25;;;26.65;;
21519;SDS011;10921;53.614;9.882;2023-03-08T07:32:39;33.63;;;25.58;;
21519;SDS011;10921;53.614;9.882;2023-03-08T07:37:37;31.17;;;23.40;;
21519;SDS011;10921;53.614;9.882;2023-03-08T07:40:04;35.70;;;24.08;;
21519;SDS011;10921;53.614;9.882;2023-03-08T07:42:31;27.90;;;21.00;;
21519;SDS011;10921;53.614;9.882;2023-03-08T07:44:58;30.88;;;21.75;;
21519;SDS011;10921;53.614;9.882;2023-03-08T07:47:24;28.58;;;21.77;;
21519;SDS011;10921;53.614;9.882;2023-03-08T07:49:51;27.60;;;21.60;;
21519;SDS011;10921;53.614;9.882;2023-03-08T07:52:17;27.17;;;20.95;;
21519;SDS011;10921;53.614;9.882;2023-03-08T07:54:43;28.23;;;21.63;;
21519;SDS011;10921;53.614;9.882;2023-03-08T07:57:13;27.00;;;21.58;;
21519;SDS011;10921;53.614;9.882;2023-03-08T07:59:40;27.02;;;20.77;;
21519;SDS011;10921;53.614;9.882;2023-03-08T08:02:13;25.83;;;20.92;;
21519;SDS011;10921;53.614;9.882;2023-03-08T08:04:40;26.02;;;20.83;;
21519;SDS011;10921;53.614;9.882;2023-03-08T08:07:10;25.40;;;20.83;;
21519;SDS011;10921;53.614;9.882;2023-03-08T08:09:37;25.80;;;21.63;;
21519;SDS011;10921;53.614;9.882;2023-03-08T08:12:04;30.63;;;22.10;;
21519;SDS011;10921;53.614;9.882;2023-03-08T08:14:31;27.92;;;21.77;;
21519;SDS011;10921;53.614;9.882;2023-03-08T08:16:57;33.03;;;23.27;;
21519;SDS011;10921;53.614;9.882;2023-03-08T08:19:24;35.67;;;26.15;;
21519;SDS011;10921;53.614;9.882;2023-03-08T08:21:50;38.80;;;25.52;;
21519;SDS011;10921;53.614;9.882;2023-03-08T08:24:17;45.20;;;27.85;;
21519;SDS011;10921;53.614;9.882;2023-03-08T08:26:43;37.45;;;26.92;;
21519;SDS011;10921;53.614;9.882;2023-03-08T08:29:10;35.03;;;25.27;;
21519;SDS011;10921;53.614;9.882;2023-03-08T08:31:36;43.60;;;27.30;;
21519;SDS011;10921;53.614;9.882;2023-03-08T08:34:03;35.08;;;25.67;;
21519;SDS011;10921;53.614;9.882;2023-03-08T08:36:29;38.33;;;26.00;;
21519;SDS011;10921;53.614;9.882;2023-03-08T08:38:56;32.58;;;24.00;;
21519;SDS011;10921;53.614;9.882;2023-03-08T08:41:22;40.72;;;26.50;;
21519;SDS011;10921;53.614;9.882;2023-03-08T08:43:49;43.42;;;28.42;;
21519;SDS011;10921;53.614;9.882;2023-03-08T08:46:16;41.72;;;28.38;;
21519;SDS011;10921;53.614;9.882;2023-03-08T08:48:43;43.22;;;27.92;;
21519;SDS011;10921;53.614;9.882;2023-03-08T08:51:10;40.90;;;26.70;;
21519;SDS011;10921;53.614;9.882;2023-03-08T08:53:38;45.72;;;30.35;;
21519;SDS011;10921;53.614;9.882;2023-03-08T08:56:09;51.47;;;33.90;;
21519;SDS011;10921;53.614;9.882;2023-03-08T08:58:52;61.95;;;35.47;;
21519;SDS011;10921;53.614;9.882;2023-03-08T09:01:19;52.90;;;33.20;;
21519;SDS011;10921;53.614;9.882;2023-03-08T09:03:48;51.10;;;32.13;;
21519;SDS011;10921;53.614;9.882;2023-03-08T09:06:16;48.92;;;30.98;;
21519;SDS011;10921;53.614;9.882;2023-03-08T09:08:47;52.75;;;29.60;;
21519;SDS011;10921;53.614;9.882;2023-03-08T09:11:17;47.28;;;30.05;;
21519;SDS011;10921;53.614;9.882;2023-03-08T09:13:44;44.65;;;29.15;;
21519;SDS011;10921;53.614;9.882;2023-03-08T09:16:20;45.28;;;29.15;;
21519;SDS011;10921;53.614;9.882;2023-03-08T09:18:52;44.70;;;28.20;;
21519;SDS011;10921;53.614;9.882;2023-03-08T09:21:21;46.55;;;29.70;;
21519;SDS011;10921;53.614;9.882;2023-03-08T09:23:49;47.22;;;29.23;;
21519;SDS011;10921;53.614;9.882;2023-03-08T09:26:16;47.65;;;30.73;;
21519;SDS011;10921;53.614;9.882;2023-03-08T09:28:43;51.90;;;29.40;;
21519;SDS011;10921;53.614;9.882;2023-03-08T09:31:11;48.50;;;29.45;;
21519;SDS011;10921;53.614;9.882;2023-03-08T09:33:43;43.42;;;28.92;;
21519;SDS011;10921;53.614;9.882;2023-03-08T09:36:11;48.05;;;29.52;;
21519;SDS011;10921;53.614;9.882;2023-03-08T09:38:39;46.05;;;30.33;;
21519;SDS011;10921;53.614;9.882;2023-03-08T09:46:54;47.08;;;28.67;;
21519;SDS011;10921;53.614;9.882;2023-03-08T09:49:26;50.95;;;31.58;;
21519;SDS011;10921;53.614;9.882;2023-03-08T09:54:36;45.83;;;30.20;;
21519;SDS011;10921;53.614;9.882;2023-03-08T09:57:04;47.65;;;29.45;;
21519;SDS011;10921;53.614;9.882;2023-03-08T09:59:44;49.58;;;32.83;;
21519;SDS011;10921;53.614;9.882;2023-03-08T10:08:10;48.33;;;29.50;;
21519;SDS011;10921;53.614;9.882;2023-03-08T10:10:57;47.22;;;26.67;;
21519;SDS011;10921;53.614;9.882;2023-03-08T10:13:29;43.97;;;28.15;;
21519;SDS011;10921;53.614;9.882;2023-03-08T10:19:14;42.03;;;28.50;;
21519;SDS011;10921;53.614;9.882;2023-03-08T10:21:50;40.28;;;26.70;;
21519;SDS011;10921;53.614;9.882;2023-03-08T10:24:18;43.40;;;27.73;;
21519;SDS011;10921;53.614;9.882;2023-03-08T10:26:59;40.58;;;27.58;;
21519;SDS011;10921;53.614;9.882;2023-03-08T10:29:32;42.00;;;26.25;;
21519;SDS011;10921;53.614;9.882;2023-03-08T10:31:58;33.08;;;25.23;;
21519;SDS011;10921;53.614;9.882;2023-03-08T10:34:28;32.25;;;24.27;;
21519;SDS011;10921;53.614;9.882;2023-03-08T10:36:57;29.48;;;23.23;;
21519;SDS011;10921;53.614;9.882;2023-03-08T10:39:26;35.45;;;22.83;;
21519;SDS011;10921;53.614;9.882;2023-03-08T10:41:53;29.80;;;22.45;;
21519;SDS011;10921;53.614;9.882;2023-03-08T10:44:37;36.28;;;24.83;;
21519;SDS011;10921;53.614;9.882;2023-03-08T10:47:24;30.98;;;23.02;;
21519;SDS011;10921;53.614;9.882;2023-03-08T10:50:03;29.90;;;22.83;;
21519;SDS011;10921;53.614;9.882;2023-03-08T10:52:41;29.60;;;21.30;;
21519;SDS011;10921;53.614;9.882;2023-03-08T10:55:13;31.13;;;22.05;;
21519;SDS011;10921;53.614;9.882;2023-03-08T10:57:52;26.92;;;20.92;;
21519;SDS011;10921;53.614;9.882;2023-03-08T11:00:36;24.30;;;19.50;;
21519;SDS011;10921;53.614;9.882;2023-03-08T11:03:12;27.95;;;19.42;;
21519;SDS011;10921;53.614;9.882;2023-03-08T11:05:55;26.50;;;19.52;;
21519;SDS011;10921;53.614;9.882;2023-03-08T11:08:24;25.58;;;19.80;;
21519;SDS011;10921;53.614;9.882;2023-03-08T11:13:50;29.38;;;18.45;;
21519;SDS011;10921;53.614;9.882;2023-03-08T11:21:55;25.92;;;17.85;;
21519;SDS011;10921;53.614;9.882;2023-03-08T11:27:04;22.42;;;17.88;;
21519;SDS011;10921;53.614;9.882;2023-03-08T11:29:44;24.93;;;19.97;;
21519;SDS011;10921;53.614;9.882;2023-03-08T11:35:17;20.92;;;17.15;;
21519;SDS011;10921;53.614;9.882;2023-03-08T11:41:37;20.58;;;16.60;;
21519;SDS011;10921;53.614;9.882;2023-03-08T11:43:43;17.75;;;15.88;;
21519;SDS011;10921;53.614;9.882;2023-03-08T11:46:31;18.90;;;16.65;;
21519;SDS011;10921;53.614;9.882;2023-03-08T11:49:26;20.10;;;18.02;;
21519;SDS011;10921;53.614;9.882;2023-03-08T11:52:25;20.17;;;15.82;;
21519;SDS011;10921;53.614;9.882;2023-03-08T11:57:51;22.52;;;18.67;;
21519;SDS011;10921;53.614;9.882;2023-03-08T12:00:41;18.55;;;16.73;;
21519;SDS011;10921;53.614;9.882;2023-03-08T12:03:22;16.05;;;14.45;;
21519;SDS011;10921;53.614;9.882;2023-03-08T12:05:56;16.98;;;15.23;;
21519;SDS011;10921;53.614;9.882;2023-03-08T12:09:10;17.55;;;15.65;;
21519;SDS011;10921;53.614;9.882;2023-03-08T12:11:40;18.00;;;15.52;;
21519;SDS011;10921;53.614;9.882;2023-03-08T12:16:56;18.30;;;16.52;;
21519;SDS011;10921;53.614;9.882;2023-03-08T12:19:33;19.08;;;16.58;;
21519;SDS011;10921;53.614;9.882;2023-03-08T12:27:59;17.08;;;15.30;;
21519;SDS011;10921;53.614;9.882;2023-03-08T12:32:57;17.33;;;15.15;;
21519;SDS011;10921;53.614;9.882;2023-03-08T12:35:31;14.52;;;13.02;;
21519;SDS011;10921;53.614;9.882;2023-03-08T12:40:45;14.32;;;12.82;;
21519;SDS011;10921;53.614;9.882;2023-03-08T12:43:13;14.35;;;12.75;;
21519;SDS011;10921;53.614;9.882;2023-03-08T12:56:49;14.05;;;12.65;;
21519;SDS011;10921;53.614;9.882;2023-03-08T13:01:44;13.45;;;11.90;;
21519;SDS011;10921;53.614;9.882;2023-03-08T13:04:35;13.50;;;12.27;;
21519;SDS011;10921;53.614;9.882;2023-03-08T13:12:17;14.05;;;12.75;;
21519;SDS011;10921;53.614;9.882;2023-03-08T13:17:37;15.40;;;13.93;;
21519;SDS011;10921;53.614;9.882;2023-03-08T13:20:27;17.00;;;15.20;;
21519;SDS011;10921;53.614;9.882;2023-03-08T13:23:17;17.98;;;14.45;;
21519;SDS011;10921;53.614;9.882;2023-03-08T13:28:45;17.88;;;14.48;;
21519;SDS011;10921;53.614;9.882;2023-03-08T13:31:18;16.83;;;15.23;;
21519;SDS011;10921;53.614;9.882;2023-03-08T13:33:51;17.52;;;15.57;;
21519;SDS011;10921;53.614;9.882;2023-03-08T13:36:19;16.50;;;14.50;;
